Hill AFB, UT

9:47 PM MDT on August 22, 2014 (GMT -0600)
Hill Air Force Base | Change Station
CLOSE
Current Station
Airport
Location: Ogden Hill AFB,
Elevation: 4787 ft
Nearby Weather Stations

Elev 4787 ft 41.12 °N, 111.97 °W | Updated 14 minutes ago

Scattered Clouds
Scattered Clouds
57 °F
Feels Like 57 °F
N
9
Wind Variable Wind from East

Today
High -- | Low -- °F
--% Chance of Precip.
Yesterday
High -- | Low -- °F
Precip. -- in
6:44 AM 8:16 PM
Waning Crescent, 5% visible
Pressure 30.01 in
Visibility 10.0 miles
Clouds Few 7000 ft
Scattered Clouds 9000 ft
Dew Point 52 °F
Humidity 82%
Rainfall 0.36 in
Snow Depth 0 in , 0 in , 0 in
UV 0 out of 12
Pollen 7.90 out of 12
PM2.5 Good
Flu Activity Not available.
SPECI KHIF 230333Z AUTO 09008KT 10SM FEW070 SCT090 14/11 A3001 RMK AO2

More Conditions Fewer Conditions

Pressure 30.01 in
Visibility 10.0 miles
Clouds Few 7000 ft
Scattered Clouds 9000 ft
Dew Point 52 °F
Humidity 82%
Rainfall 0.36 in
Snow Depth 0 in , 0 in , 0 in
UV 0 out of 12
Pollen 7.90 out of 12
PM2.5 Good
Flu Activity Not available.
SPECI KHIF 230333Z AUTO 09008KT 10SM FEW070 SCT090 14/11 A3001 RMK AO2

More Conditions Fewer Conditions

Nowcast | as of 8:22 PM MDT on August 22, 2014

Numerous showers with widely scattered thunderstorms will continue across northern and central Utah along with southwest Wyoming through the evening hours. The strongest storms at 815 PM were located along a line from Grouse Creek to just west of Lucin...and along a band from Wellsville south to Morgan. Brief heavy rain...gusty winds and dangerous lightning may accompany some storms.

×

10-Day Weather Forecast

Almanac

Astronomy

Aug. 22, 2014 Rise Set
Actual Time 6:44 AM MDT 8:16 PM MDT
Civil Twilight 6:15 AM MDT 8:45 PM MDT
Nautical Twilight 5:40 AM MDT 9:19 PM MDT
Astronomical Twilight 5:03 AM MDT 9:56 PM MDT
Moon 4:09 AM MDT (8/22) 6:27 PM MDT (8/22)
Length of Visible Light 14h 29m
Length of Day
13h 31m
Tomorrow will be 2m 32s shorter.
Waning Crescent, 5% of the Moon is Illuminated
Today
Waning Crescent
Aug 25
New
Sep 2
First Quarter
Sep 8
Full
Sep 15
Last Quarter

Today's Extremes

State Highs State Lows

Community

WunderPhotos

Upload Photos

1,746,352 photos uploaded!

WunderBlogs® & News

Nearby

Air Quality

  Air Quality AQ Index Pollutant
Yesterday Good
OZONE
Yesterday Good
PM10
Current Good
PM2.5
Friday Good
OZONE
Saturday Good
OZONE
Sunday Good
OZONE

Snow Depth

Station Depth Elevation
Farmington 0 in 8000 ft
Parrish Creek 0 in 7740 ft
Ben Lomond Peak 0 in 8000 ft
Ben Lomond Trail 2 in 6000 ft
Hardscrabble 0 in 7250 ft

Earthquake Activity

City Distance Mag. Time & Date
No recent earthquake activity has been reported nearby.
Minimum magnitude displayed is 2.5.

Coastal Water Temperatures

Place Temperature
No Stations Reporting

Nearby Weather Stations